Hauptseite
METAR-TAF:

METAR-TAF

Flughäfen :

Flughafen Chambéry-Savoie

Chambery / Aix-Les-Bains, Frankreich

Breite: 45-39N, Länge: 005-53E, Höhe: 235 m

Beobachtung

Neuester Wetterbericht von vor 15 Minuten, um 03:00 UTC
Wind 3 kt aus West
Temperatur 13°C
Luftfeuchtigkeit 94%
Luftdruck 1016 hPa
Sichtweite 10 km oder mehr
keine Wolken unter 1500 m und keine Kumulonimbus oder Gewitterwolken

METAR: LFLB 160300Z AUTO 27003KT CAVOK 13/12 Q1016 NOSIG

Zeit: 05:15 (03:15 UTC)

Prognose

Neuester Wetterbericht von vor 4 Stunden und 15 Minuten, um 23:00 UTC
Gültige Prognose vom 16 um 00 UTC bis 16 um 24 UTC
Wind 3 kt aus unterschiedlichen Richtungen
Sichtweite 10 km oder mehr
keine Wolken unter 1500 m und keine Kumulonimbus oder Gewitterwolken

TAF: LFLB 152300Z 1600/1624 VRB03KT CAVOK

Wetterbeobachtungen und Prognosen von mehr als 4000 Flughäfen (METAR und TAF Bericht).

Die verfügbaren Stationen werden durch gelbe und rote Markierungen auf der Karte dargestellt.

Führen Sie die Maus auf sie, um den Namen der Station zu sehen.

Darauf klicken, um die Beobachtung von Wetterbeobachtungen und Prognosen zu sehen.

Um die Karte zu ändern : klicken Sie auf den grünen Tasten mit einem schwarzen Kreuz Zum Vergrößern, auf den grünen Button mit einem Gedankenstrich zu verkleinern, oder auf die grünen Pfeile für benachbarte Karten.


METAR-TAF: